Time;durP1;ratioP1;P1;durP2;ratioP2;P2;SDS_P1;SDS_P2;PMS_P1;PMS_P2;Temp;Humidity;BMP_temperature;BMP_pressure;BME280_temperature;BME280_humidity;BME280_pressure;Samples;Min_cycle;Max_cycle;Signal;HPM_P1;HPM_P2
2022/01/27 00:00:19;;;;;;;;;;;9.60;63.30;;;;;;5003018;28;19972;-95
2022/01/27 00:05:20;;;;;;;;;;;9.60;63.30;;;;;;5010248;28;19917;-94
2022/01/27 00:08:02;;;;;;;;;;;9.60;63.20;;;;;;5021548;28;20344;-94
2022/01/27 00:10:48;;;;;;;;;;;9.70;63.20;;;;;;5022619;28;20316;-93
2022/01/27 00:13:15;;;;;;;;;;;9.70;63.10;;;;;;5010455;28;19921;-93
2022/01/27 00:15:42;;;;;;;;;;;9.70;63.00;;;;;;5022349;28;19917;-94
2022/01/27 00:18:15;;;;;;;;;;;9.70;63.00;;;;;;5014619;28;19964;-94
2022/01/27 00:20:41;;;;;;;;;;;9.70;63.20;;;;;;5019114;28;19959;-95
2022/01/27 00:23:07;;;;;;;;;;;9.70;63.20;;;;;;5017780;28;19926;-94
2022/01/27 00:25:32;;;;;;;;;;;9.70;63.10;;;;;;5011291;28;19918;-95
2022/01/27 00:27:58;;;;;;;;;;;9.70;63.10;;;;;;5012663;28;19921;-95
2022/01/27 00:30:23;;;;;;;;;;;9.70;63.10;;;;;;5020889;28;19949;-95
2022/01/27 00:32:49;;;;;;;;;;;9.70;63.10;;;;;;5021158;28;19929;-94
2022/01/27 00:35:14;;;;;;;;;;;9.70;63.30;;;;;;5019378;28;20381;-93
2022/01/27 00:37:40;;;;;;;;;;;9.80;63.20;;;;;;5020644;28;20341;-94
2022/01/27 00:40:07;;;;;;;;;;;9.80;63.10;;;;;;5013481;28;19963;-93
2022/01/27 00:42:32;;;;;;;;;;;9.80;63.10;;;;;;5019452;28;20362;-93
2022/01/27 00:44:59;;;;;;;;;;;9.80;63.00;;;;;;5020216;28;19920;-95
2022/01/27 00:47:24;;;;;;;;;;;9.80;62.90;;;;;;5018624;28;20388;-93
2022/01/27 00:49:50;;;;;;;;;;;9.80;63.10;;;;;;5015411;28;19925;-94
2022/01/27 00:52:16;;;;;;;;;;;9.80;62.90;;;;;;5012889;28;19995;-94
2022/01/27 00:54:45;;;;;;;;;;;9.80;62.90;;;;;;5018821;28;19925;-94
2022/01/27 00:57:21;;;;;;;;;;;9.80;63.10;;;;;;5014718;28;19960;-93
2022/01/27 00:59:57;;;;;;;;;;;9.90;62.90;;;;;;5008432;28;19925;-93
2022/01/27 01:07:49;;;;;;;;;;;9.90;63.10;;;;;;5019258;28;19922;-94
2022/01/27 01:15:39;;;;;;;;;;;10.00;63.10;;;;;;5016248;28;19918;-94
2022/01/27 01:31:32;;;;;;;;;;;10.00;62.60;;;;;;5019237;28;19936;-93
2022/01/27 01:34:13;;;;;;;;;;;10.10;62.80;;;;;;5010520;28;19952;-94
2022/01/27 01:36:48;;;;;;;;;;;10.10;62.60;;;;;;5016767;28;19933;-94
2022/01/27 01:39:14;;;;;;;;;;;10.10;62.60;;;;;;5016662;28;19925;-93
2022/01/27 01:41:40;;;;;;;;;;;10.00;62.70;;;;;;5015283;28;19925;-93
2022/01/27 01:44:05;;;;;;;;;;;10.10;62.60;;;;;;5013935;28;19925;-94
2022/01/27 01:46:31;;;;;;;;;;;10.10;62.50;;;;;;5005318;28;19969;-93
2022/01/27 01:48:57;;;;;;;;;;;10.10;62.50;;;;;;5017123;28;20310;-92
2022/01/27 01:51:25;;;;;;;;;;;10.10;62.50;;;;;;5010794;28;20430;-93
2022/01/27 01:53:50;;;;;;;;;;;10.10;62.40;;;;;;5015107;28;19917;-94
2022/01/27 01:56:16;;;;;;;;;;;10.10;62.40;;;;;;5012272;28;19948;-93
2022/01/27 01:58:41;;;;;;;;;;;10.10;62.10;;;;;;5019953;28;19945;-93
2022/01/27 02:01:08;;;;;;;;;;;10.10;62.10;;;;;;5022276;28;20283;-92
2022/01/27 02:03:33;;;;;;;;;;;10.10;62.10;;;;;;5015685;28;20027;-93
2022/01/27 02:06:00;;;;;;;;;;;10.00;62.10;;;;;;5020055;28;19914;-92
2022/01/27 02:08:35;;;;;;;;;;;10.00;62.20;;;;;;5019389;28;19925;-93
2022/01/27 02:19:24;;;;;;;;;;;10.00;62.10;;;;;;5008185;28;19941;-91
2022/01/27 02:21:52;;;;;;;;;;;9.90;62.10;;;;;;4999661;28;19918;-93
2022/01/27 02:24:18;;;;;;;;;;;10.00;61.90;;;;;;5019341;28;19922;-93
2022/01/27 02:26:44;;;;;;;;;;;10.00;62.00;;;;;;5019199;28;20014;-93
2022/01/27 02:29:10;;;;;;;;;;;10.00;61.90;;;;;;5020934;28;19921;-93
2022/01/27 02:31:36;;;;;;;;;;;9.90;61.80;;;;;;5021357;28;19976;-93
2022/01/27 02:34:01;;;;;;;;;;;9.90;61.70;;;;;;5024664;28;19989;-93
2022/01/27 02:36:27;;;;;;;;;;;9.90;61.40;;;;;;5022767;28;19993;-93
2022/01/27 02:38:54;;;;;;;;;;;9.90;61.10;;;;;;5007930;28;19924;-92
2022/01/27 02:41:20;;;;;;;;;;;9.90;61.20;;;;;;5005254;28;19924;-93
2022/01/27 02:43:46;;;;;;;;;;;9.80;61.20;;;;;;5017592;28;19921;-93
2022/01/27 02:46:17;;;;;;;;;;;9.80;61.30;;;;;;5022213;28;20395;-91
2022/01/27 02:48:42;;;;;;;;;;;9.80;61.40;;;;;;5003669;28;19925;-92
2022/01/27 02:51:08;;;;;;;;;;;9.80;61.10;;;;;;5018902;28;19998;-92
2022/01/27 02:53:33;;;;;;;;;;;9.80;61.30;;;;;;5015712;28;19909;-92
2022/01/27 02:55:59;;;;;;;;;;;9.80;61.00;;;;;;5016141;28;19925;-91
2022/01/27 02:58:24;;;;;;;;;;;9.80;61.10;;;;;;5017854;28;19913;-92
2022/01/27 03:00:50;;;;;;;;;;;9.80;61.20;;;;;;5017909;28;19918;-93
2022/01/27 03:03:15;;;;;;;;;;;9.80;61.10;;;;;;5018073;28;19918;-92
2022/01/27 03:05:41;;;;;;;;;;;9.80;61.10;;;;;;5014741;28;19918;-93
2022/01/27 03:08:06;;;;;;;;;;;9.70;61.20;;;;;;5016393;28;19921;-92
2022/01/27 03:10:34;;;;;;;;;;;9.70;61.20;;;;;;5012198;28;19929;-93
2022/01/27 03:13:00;;;;;;;;;;;9.80;61.20;;;;;;5013811;28;19943;-93
2022/01/27 03:15:26;;;;;;;;;;;9.80;61.00;;;;;;5015319;28;19917;-93
2022/01/27 03:17:52;;;;;;;;;;;9.70;61.10;;;;;;5008516;28;19952;-93
2022/01/27 03:20:18;;;;;;;;;;;9.70;61.00;;;;;;5013925;28;19917;-93
2022/01/27 03:22:43;;;;;;;;;;;9.80;61.00;;;;;;5005744;28;20416;-94
2022/01/27 03:25:12;;;;;;;;;;;9.80;60.90;;;;;;5012031;28;19968;-93
2022/01/27 03:27:44;;;;;;;;;;;9.80;61.10;;;;;;5003687;28;19953;-93
2022/01/27 03:30:10;;;;;;;;;;;9.80;61.20;;;;;;5018593;28;19964;-94
2022/01/27 03:32:35;;;;;;;;;;;9.80;60.90;;;;;;4999933;28;20478;-92
2022/01/27 03:35:01;;;;;;;;;;;9.80;60.80;;;;;;5017340;28;20008;-93
2022/01/27 03:37:26;;;;;;;;;;;9.80;61.00;;;;;;5017958;28;20401;-93
2022/01/27 03:39:51;;;;;;;;;;;9.80;61.10;;;;;;5017145;28;19993;-93
2022/01/27 03:42:17;;;;;;;;;;;9.80;61.20;;;;;;5016539;28;19956;-93
2022/01/27 03:44:42;;;;;;;;;;;9.80;60.90;;;;;;5001146;28;19913;-93
2022/01/27 03:47:08;;;;;;;;;;;9.80;61.00;;;;;;5017820;28;19921;-92
2022/01/27 03:49:33;;;;;;;;;;;9.80;61.00;;;;;;5019378;28;19917;-93
2022/01/27 03:52:01;;;;;;;;;;;9.70;60.90;;;;;;5014064;28;19928;-93
2022/01/27 03:54:26;;;;;;;;;;;9.80;60.90;;;;;;5015924;28;20397;-93
2022/01/27 03:56:52;;;;;;;;;;;9.70;61.00;;;;;;5016591;28;19932;-93
2022/01/27 03:59:19;;;;;;;;;;;9.80;61.10;;;;;;5014183;28;20314;-93
2022/01/27 04:01:45;;;;;;;;;;;9.70;60.90;;;;;;5017816;28;19922;-93
2022/01/27 04:04:10;;;;;;;;;;;9.70;60.80;;;;;;5019207;28;20392;-92
2022/01/27 04:06:39;;;;;;;;;;;9.80;61.00;;;;;;5016997;28;20359;-93
2022/01/27 04:09:05;;;;;;;;;;;9.80;61.10;;;;;;5009562;28;19924;-93
2022/01/27 04:11:31;;;;;;;;;;;9.80;61.10;;;;;;5008254;28;19921;-93
2022/01/27 04:13:56;;;;;;;;;;;9.80;61.00;;;;;;5017869;28;20273;-93
2022/01/27 04:16:22;;;;;;;;;;;9.80;61.10;;;;;;5019542;28;19999;-93
2022/01/27 04:18:48;;;;;;;;;;;9.80;61.10;;;;;;5019953;28;19921;-93
2022/01/27 04:21:14;;;;;;;;;;;9.70;61.00;;;;;;5020517;28;19918;-93
2022/01/27 04:23:40;;;;;;;;;;;9.80;60.60;;;;;;5019494;28;19909;-93
2022/01/27 04:26:06;;;;;;;;;;;9.80;60.80;;;;;;5019128;28;20031;-93
2022/01/27 04:28:34;;;;;;;;;;;9.70;60.70;;;;;;5017750;28;20369;-93
2022/01/27 04:31:03;;;;;;;;;;;9.80;61.00;;;;;;5015828;28;19917;-93
2022/01/27 04:33:31;;;;;;;;;;;9.70;60.80;;;;;;5005569;28;20312;-92
2022/01/27 04:36:00;;;;;;;;;;;9.80;61.10;;;;;;5017196;28;19944;-92
2022/01/27 04:38:35;;;;;;;;;;;9.80;61.00;;;;;;5016038;28;20360;-93
2022/01/27 04:44:03;;;;;;;;;;;9.70;60.80;;;;;;4994195;28;19933;-92
2022/01/27 04:46:43;;;;;;;;;;;9.70;60.70;;;;;;5012649;28;19921;-93
2022/01/27 04:49:10;;;;;;;;;;;9.70;60.80;;;;;;5015729;28;20423;-92
2022/01/27 04:51:36;;;;;;;;;;;9.80;60.80;;;;;;5015904;28;19921;-92
2022/01/27 04:54:11;;;;;;;;;;;9.80;60.80;;;;;;5006459;28;20270;-92
2022/01/27 04:56:39;;;;;;;;;;;9.80;60.60;;;;;;5024778;28;19918;-93
2022/01/27 04:59:12;;;;;;;;;;;9.80;60.50;;;;;;5015198;28;19961;-92
2022/01/27 05:01:43;;;;;;;;;;;9.80;60.80;;;;;;5010221;28;19921;-93
2022/01/27 05:04:15;;;;;;;;;;;9.80;60.60;;;;;;5010191;28;19932;-92
2022/01/27 05:06:41;;;;;;;;;;;9.80;60.60;;;;;;5015868;28;19940;-92
2022/01/27 05:09:07;;;;;;;;;;;9.80;60.60;;;;;;5014854;28;19921;-93
2022/01/27 05:11:39;;;;;;;;;;;9.80;60.40;;;;;;5004735;28;19917;-92
2022/01/27 05:14:16;;;;;;;;;;;9.80;60.20;;;;;;5015429;28;20456;-93
2022/01/27 05:16:42;;;;;;;;;;;9.70;60.40;;;;;;5015249;28;19928;-92
2022/01/27 05:19:07;;;;;;;;;;;9.70;60.60;;;;;;5017564;28;20024;-93
2022/01/27 05:21:33;;;;;;;;;;;9.70;60.50;;;;;;5007224;28;19923;-92
2022/01/27 05:23:59;;;;;;;;;;;9.70;60.30;;;;;;5013108;28;19918;-92
2022/01/27 05:26:25;;;;;;;;;;;9.80;60.40;;;;;;5014577;28;19972;-92
2022/01/27 05:28:50;;;;;;;;;;;9.80;60.40;;;;;;5016974;28;19929;-92
2022/01/27 05:31:16;;;;;;;;;;;9.80;60.70;;;;;;5010502;28;19936;-92
2022/01/27 05:33:41;;;;;;;;;;;9.90;60.50;;;;;;5012131;28;20016;-91
2022/01/27 05:36:07;;;;;;;;;;;9.70;60.70;;;;;;5017576;28;19921;-92
2022/01/27 05:38:32;;;;;;;;;;;9.80;60.40;;;;;;5013063;28;19922;-92
2022/01/27 05:40:58;;;;;;;;;;;9.80;60.50;;;;;;5016679;28;19913;-92
2022/01/27 05:43:23;;;;;;;;;;;9.90;60.40;;;;;;5016924;28;20388;-92
2022/01/27 05:45:51;;;;;;;;;;;9.90;60.40;;;;;;5017201;28;19964;-92
2022/01/27 05:48:17;;;;;;;;;;;9.90;60.40;;;;;;5015115;28;19928;-92
2022/01/27 05:50:42;;;;;;;;;;;10.00;60.50;;;;;;5015673;28;19913;-91
2022/01/27 05:53:08;;;;;;;;;;;10.00;60.30;;;;;;5013799;28;19917;-92
2022/01/27 05:55:33;;;;;;;;;;;10.00;60.30;;;;;;5014871;28;20274;-92
2022/01/27 05:57:59;;;;;;;;;;;10.00;60.40;;;;;;5014556;28;19944;-91
2022/01/27 06:00:27;;;;;;;;;;;10.10;60.30;;;;;;5015652;28;19913;-92
2022/01/27 06:02:53;;;;;;;;;;;10.00;60.20;;;;;;5015157;28;20289;-92
2022/01/27 06:05:18;;;;;;;;;;;10.10;60.20;;;;;;5016000;28;19917;-92
2022/01/27 06:07:44;;;;;;;;;;;10.10;60.30;;;;;;5016479;28;19921;-92
2022/01/27 06:10:11;;;;;;;;;;;10.10;60.30;;;;;;5019608;28;19917;-91
2022/01/27 06:12:45;;;;;;;;;;;10.20;60.20;;;;;;5016553;28;19945;-93
2022/01/27 06:15:11;;;;;;;;;;;10.20;60.10;;;;;;4999297;28;19922;-92
2022/01/27 06:17:36;;;;;;;;;;;10.20;60.50;;;;;;4996770;28;19932;-91
2022/01/27 06:20:03;;;;;;;;;;;10.20;60.40;;;;;;5006818;28;20435;-91
2022/01/27 06:22:28;;;;;;;;;;;10.20;60.30;;;;;;5014648;28;19932;-91
2022/01/27 06:24:53;;;;;;;;;;;10.20;60.10;;;;;;5014411;28;20297;-92
2022/01/27 06:27:19;;;;;;;;;;;10.20;60.20;;;;;;5014580;28;19945;-91
2022/01/27 06:29:44;;;;;;;;;;;10.30;60.40;;;;;;5009814;28;19929;-92
2022/01/27 06:32:11;;;;;;;;;;;10.30;60.50;;;;;;5016220;28;19924;-92
2022/01/27 06:34:36;;;;;;;;;;;10.30;60.40;;;;;;5015148;28;19922;-92
2022/01/27 06:37:02;;;;;;;;;;;10.30;60.10;;;;;;5015316;28;19940;-91
2022/01/27 06:39:27;;;;;;;;;;;10.30;60.40;;;;;;5014577;28;19964;-92
2022/01/27 06:41:53;;;;;;;;;;;10.40;60.50;;;;;;5013305;28;19949;-91
2022/01/27 06:44:18;;;;;;;;;;;10.40;60.50;;;;;;5013792;28;19921;-92
2022/01/27 06:46:44;;;;;;;;;;;10.40;60.40;;;;;;5013311;28;19918;-91
2022/01/27 06:49:14;;;;;;;;;;;10.40;60.30;;;;;;5013093;28;20292;-92
2022/01/27 06:51:39;;;;;;;;;;;10.50;60.20;;;;;;5014480;28;20360;-91
2022/01/27 06:54:05;;;;;;;;;;;10.40;60.40;;;;;;5015938;28;19902;-91
2022/01/27 06:56:30;;;;;;;;;;;10.40;60.50;;;;;;5014387;28;20019;-91
2022/01/27 06:58:56;;;;;;;;;;;10.40;60.40;;;;;;5013885;28;19995;-91
2022/01/27 07:01:21;;;;;;;;;;;10.50;60.50;;;;;;5014497;28;19968;-92
2022/01/27 07:03:47;;;;;;;;;;;10.50;60.60;;;;;;5013949;28;19917;-92
2022/01/27 07:06:13;;;;;;;;;;;10.40;60.40;;;;;;5013807;28;19921;-91
2022/01/27 07:08:39;;;;;;;;;;;10.40;60.50;;;;;;5013883;28;19917;-91
2022/01/27 07:11:04;;;;;;;;;;;10.40;60.60;;;;;;5014060;28;19922;-91
2022/01/27 07:13:30;;;;;;;;;;;10.30;60.80;;;;;;5012444;28;19914;-91
2022/01/27 07:15:56;;;;;;;;;;;10.30;61.00;;;;;;5013537;28;19921;-92
2022/01/27 07:18:22;;;;;;;;;;;10.20;61.10;;;;;;5014261;28;19968;-92
2022/01/27 07:20:48;;;;;;;;;;;10.20;61.20;;;;;;5014648;28;19917;-92
2022/01/27 07:23:13;;;;;;;;;;;10.20;61.30;;;;;;5013758;28;19983;-91
2022/01/27 07:25:39;;;;;;;;;;;10.20;61.50;;;;;;5014706;28;19921;-92
2022/01/27 07:28:05;;;;;;;;;;;10.10;61.70;;;;;;5014559;28;19922;-91
2022/01/27 07:30:30;;;;;;;;;;;10.10;61.80;;;;;;5015326;28;19922;-92
2022/01/27 07:32:56;;;;;;;;;;;10.10;61.90;;;;;;5014331;28;19917;-93
2022/01/27 07:35:21;;;;;;;;;;;10.00;62.00;;;;;;5015655;28;19929;-93
2022/01/27 07:37:47;;;;;;;;;;;10.00;62.20;;;;;;5014364;28;20020;-93
2022/01/27 07:40:12;;;;;;;;;;;10.00;62.30;;;;;;5015253;28;19971;-92
2022/01/27 07:42:38;;;;;;;;;;;10.00;62.40;;;;;;5015703;28;20357;-93
2022/01/27 07:45:04;;;;;;;;;;;10.00;62.40;;;;;;5014864;28;19928;-93
2022/01/27 07:47:30;;;;;;;;;;;10.00;62.50;;;;;;5009974;28;19918;-93
2022/01/27 07:49:55;;;;;;;;;;;10.00;62.60;;;;;;5007711;28;19993;-92
2022/01/27 07:52:21;;;;;;;;;;;10.00;62.60;;;;;;5007043;28;19918;-93
2022/01/27 07:54:46;;;;;;;;;;;10.00;62.70;;;;;;5012624;28;19921;-93
2022/01/27 07:57:12;;;;;;;;;;;10.00;62.70;;;;;;5015573;28;19927;-93
2022/01/27 07:59:38;;;;;;;;;;;10.10;62.80;;;;;;5014530;28;19918;-93
2022/01/27 08:02:04;;;;;;;;;;;10.10;62.80;;;;;;5011522;28;19953;-94
2022/01/27 08:04:29;;;;;;;;;;;10.10;62.90;;;;;;5013465;28;19922;-93
2022/01/27 08:06:56;;;;;;;;;;;10.10;62.90;;;;;;5015823;28;20274;-92
2022/01/27 08:09:22;;;;;;;;;;;10.10;62.90;;;;;;5014979;28;19958;-93
2022/01/27 08:11:48;;;;;;;;;;;10.10;63.00;;;;;;5018491;28;19925;-93
2022/01/27 08:14:13;;;;;;;;;;;10.10;63.10;;;;;;5017840;28;19897;-93
2022/01/27 08:16:39;;;;;;;;;;;10.20;63.20;;;;;;5025399;28;20497;-94
2022/01/27 08:19:05;;;;;;;;;;;10.20;63.10;;;;;;5004921;28;20277;-93
2022/01/27 08:21:30;;;;;;;;;;;10.20;63.20;;;;;;5014539;28;19921;-93
2022/01/27 08:23:57;;;;;;;;;;;10.20;63.20;;;;;;5020564;28;20457;-94
2022/01/27 08:26:32;;;;;;;;;;;10.20;63.30;;;;;;5021587;28;19922;-93
2022/01/27 08:31:53;;;;;;;;;;;10.30;63.30;;;;;;5023256;28;19906;-94
2022/01/27 08:34:27;;;;;;;;;;;10.30;63.40;;;;;;5021180;28;19913;-94
2022/01/27 08:36:53;;;;;;;;;;;10.30;63.50;;;;;;5017769;28;19967;-94
2022/01/27 08:39:18;;;;;;;;;;;10.40;63.50;;;;;;5020351;28;19921;-94
2022/01/27 08:41:44;;;;;;;;;;;10.40;63.50;;;;;;5021204;28;19980;-94
2022/01/27 08:44:10;;;;;;;;;;;10.40;63.70;;;;;;5017795;28;20297;-95
2022/01/27 08:46:36;;;;;;;;;;;10.40;63.60;;;;;;5018871;28;20019;-94
2022/01/27 08:49:02;;;;;;;;;;;10.50;63.50;;;;;;5022299;28;19918;-95
2022/01/27 08:51:30;;;;;;;;;;;10.50;63.70;;;;;;5020369;28;19929;-95
2022/01/27 08:53:55;;;;;;;;;;;10.50;63.80;;;;;;5020379;28;19909;-93
2022/01/27 08:56:21;;;;;;;;;;;10.70;63.80;;;;;;5020937;28;19972;-93
2022/01/27 08:58:50;;;;;;;;;;;10.60;63.90;;;;;;5020104;28;19925;-93
2022/01/27 09:01:15;;;;;;;;;;;10.70;63.80;;;;;;5023106;28;20021;-94
2022/01/27 09:03:41;;;;;;;;;;;10.70;63.80;;;;;;5022981;28;19949;-94
2022/01/27 09:06:07;;;;;;;;;;;10.80;63.80;;;;;;5008228;28;19918;-93
2022/01/27 09:08:32;;;;;;;;;;;10.80;63.70;;;;;;4999982;28;19952;-94
2022/01/27 09:10:58;;;;;;;;;;;10.80;63.80;;;;;;5020115;28;19920;-94
2022/01/27 09:13:23;;;;;;;;;;;10.80;63.70;;;;;;5022793;28;20016;-94
2022/01/27 09:15:49;;;;;;;;;;;10.80;63.60;;;;;;5020357;28;19910;-94
2022/01/27 09:18:15;;;;;;;;;;;10.90;63.80;;;;;;5019526;28;19922;-93
2022/01/27 09:20:42;;;;;;;;;;;10.90;63.80;;;;;;5021751;28;19918;-92
2022/01/27 09:23:13;;;;;;;;;;;11.00;63.70;;;;;;5021060;28;19917;-92
2022/01/27 09:25:47;;;;;;;;;;;11.00;63.80;;;;;;5020759;28;20015;-93
2022/01/27 09:28:13;;;;;;;;;;;11.00;63.90;;;;;;5018655;28;19918;-92
2022/01/27 09:30:39;;;;;;;;;;;11.10;64.00;;;;;;5017410;28;19910;-93
2022/01/27 09:33:05;;;;;;;;;;;11.10;63.90;;;;;;5018003;28;19940;-92
2022/01/27 09:35:31;;;;;;;;;;;11.10;63.80;;;;;;5018831;28;19909;-92
2022/01/27 09:37:58;;;;;;;;;;;11.10;64.00;;;;;;5017228;28;19925;-92
2022/01/27 09:40:24;;;;;;;;;;;11.20;63.90;;;;;;5017508;28;19996;-93
2022/01/27 09:42:52;;;;;;;;;;;11.20;63.90;;;;;;5016297;28;19917;-92
2022/01/27 09:45:18;;;;;;;;;;;11.20;63.90;;;;;;5016205;28;19909;-92
2022/01/27 09:47:53;;;;;;;;;;;11.20;63.90;;;;;;4997777;28;19948;-94
2022/01/27 09:50:26;;;;;;;;;;;11.20;63.90;;;;;;5004638;28;20224;-94
2022/01/27 09:52:54;;;;;;;;;;;11.20;64.00;;;;;;4998790;28;19918;-93
2022/01/27 09:55:30;;;;;;;;;;;11.20;63.90;;;;;;5016977;28;19909;-94
2022/01/27 09:57:58;;;;;;;;;;;11.30;64.00;;;;;;5023275;28;19929;-93
2022/01/27 10:00:24;;;;;;;;;;;11.30;64.10;;;;;;5021038;28;19917;-92
2022/01/27 10:03:04;;;;;;;;;;;11.30;64.00;;;;;;5018191;28;20008;-92
2022/01/27 10:05:30;;;;;;;;;;;11.30;64.00;;;;;;5016646;28;19921;-92
2022/01/27 10:08:15;;;;;;;;;;;11.30;64.10;;;;;;5017091;28;19968;-92
2022/01/27 10:10:42;;;;;;;;;;;11.40;64.10;;;;;;5017409;28;19925;-93
2022/01/27 10:13:10;;;;;;;;;;;11.40;64.00;;;;;;5018099;28;19925;-91
2022/01/27 10:15:37;;;;;;;;;;;11.40;63.90;;;;;;5014946;28;19922;-92
2022/01/27 10:18:16;;;;;;;;;;;11.50;63.90;;;;;;4998827;28;19917;-92
2022/01/27 10:20:52;;;;;;;;;;;11.50;63.80;;;;;;4999246;28;19967;-93
2022/01/27 10:23:22;;;;;;;;;;;11.40;63.90;;;;;;4999093;28;19910;-92
2022/01/27 10:25:52;;;;;;;;;;;11.40;64.00;;;;;;5002707;28;20010;-92
2022/01/27 10:28:43;;;;;;;;;;;11.50;64.10;;;;;;5017201;28;19910;-92
2022/01/27 10:31:10;;;;;;;;;;;11.60;64.10;;;;;;5018319;28;19913;-92
2022/01/27 10:33:53;;;;;;;;;;;11.50;64.30;;;;;;5017466;28;19924;-93
2022/01/27 10:36:20;;;;;;;;;;;11.60;64.30;;;;;;5017256;28;19920;-95
2022/01/27 10:38:49;;;;;;;;;;;11.70;64.30;;;;;;5017909;28;19917;-94
2022/01/27 10:41:14;;;;;;;;;;;11.70;64.50;;;;;;5018268;28;19920;-94
2022/01/27 10:43:41;;;;;;;;;;;11.80;64.50;;;;;;5017540;28;19910;-94
2022/01/27 10:46:26;;;;;;;;;;;11.80;64.30;;;;;;5010285;28;20296;-93
2022/01/27 10:49:08;;;;;;;;;;;11.80;64.30;;;;;;4996777;28;19972;-93
2022/01/27 10:51:42;;;;;;;;;;;11.80;64.30;;;;;;5000106;28;19933;-92
2022/01/27 10:54:21;;;;;;;;;;;11.80;64.40;;;;;;5006314;28;19924;-92
2022/01/27 10:56:47;;;;;;;;;;;11.80;64.40;;;;;;5017627;28;19959;-94
2022/01/27 10:59:18;;;;;;;;;;;11.90;64.40;;;;;;5017688;28;21931;-92
2022/01/27 11:01:46;;;;;;;;;;;11.90;64.30;;;;;;5018327;28;19931;-93
2022/01/27 11:04:13;;;;;;;;;;;12.00;64.20;;;;;;5018256;28;19917;-93
2022/01/27 11:06:52;;;;;;;;;;;11.90;64.30;;;;;;5016945;28;20374;-93
2022/01/27 11:09:21;;;;;;;;;;;12.00;64.30;;;;;;5017653;28;20376;-92
2022/01/27 11:11:52;;;;;;;;;;;12.00;64.40;;;;;;5002486;28;19936;-93
2022/01/27 11:14:19;;;;;;;;;;;12.00;64.30;;;;;;5016875;28;19925;-93
2022/01/27 11:16:49;;;;;;;;;;;12.00;64.20;;;;;;5018649;28;19914;-92
2022/01/27 11:22:29;;;;;;;;;;;12.00;64.30;;;;;;5018394;28;20005;-92
2022/01/27 11:28:03;;;;;;;;;;;12.00;64.20;;;;;;4977091;28;19919;-94
2022/01/27 11:30:34;;;;;;;;;;;12.00;64.40;;;;;;4977851;28;19926;-93
2022/01/27 11:33:06;;;;;;;;;;;12.00;64.40;;;;;;4987373;28;19910;-94
2022/01/27 11:35:32;;;;;;;;;;;12.10;64.40;;;;;;4996946;28;20007;-92
2022/01/27 11:38:00;;;;;;;;;;;12.10;64.50;;;;;;4998773;28;19901;-93
2022/01/27 11:40:35;;;;;;;;;;;12.10;64.60;;;;;;4998264;28;20013;-93
2022/01/27 11:43:02;;;;;;;;;;;12.10;64.60;;;;;;5017061;28;20313;-93
2022/01/27 11:45:37;;;;;;;;;;;12.20;64.50;;;;;;5017652;28;19909;-93
2022/01/27 11:48:11;;;;;;;;;;;12.20;64.60;;;;;;5017207;28;19910;-92
2022/01/27 11:50:55;;;;;;;;;;;12.20;64.40;;;;;;5013979;28;19917;-92
2022/01/27 11:53:28;;;;;;;;;;;12.30;64.30;;;;;;5020391;28;19909;-92
2022/01/27 11:55:54;;;;;;;;;;;12.20;64.50;;;;;;5021471;28;19924;-92
2022/01/27 11:58:21;;;;;;;;;;;12.20;64.50;;;;;;5020221;28;19914;-92
2022/01/27 12:01:06;;;;;;;;;;;12.30;64.50;;;;;;5015673;28;19926;-93
2022/01/27 12:03:34;;;;;;;;;;;12.30;64.50;;;;;;4999746;28;19966;-92
2022/01/27 12:06:12;;;;;;;;;;;12.30;64.60;;;;;;5007411;28;19924;-93
2022/01/27 12:08:38;;;;;;;;;;;12.30;64.70;;;;;;5027196;28;20258;-93
2022/01/27 12:11:07;;;;;;;;;;;12.40;64.70;;;;;;5033309;28;19917;-93
2022/01/27 12:13:41;;;;;;;;;;;12.40;64.50;;;;;;5019710;28;19922;-94
2022/01/27 12:16:37;;;;;;;;;;;12.40;64.40;;;;;;5020036;28;19913;-93
2022/01/27 12:19:10;;;;;;;;;;;12.50;64.50;;;;;;5019170;28;19913;-93
2022/01/27 12:21:39;;;;;;;;;;;12.40;64.50;;;;;;5018691;28;19928;-93
2022/01/27 12:24:14;;;;;;;;;;;12.50;64.60;;;;;;5007489;28;19914;-92
2022/01/27 12:26:50;;;;;;;;;;;12.50;64.40;;;;;;5000090;28;19910;-92
2022/01/27 12:29:28;;;;;;;;;;;12.50;64.40;;;;;;4999382;28;19918;-92
2022/01/27 12:31:54;;;;;;;;;;;12.50;64.40;;;;;;4999593;28;19969;-93
2022/01/27 12:34:20;;;;;;;;;;;12.50;64.50;;;;;;4999982;28;19925;-93
2022/01/27 12:37:06;;;;;;;;;;;12.50;64.50;;;;;;4999177;28;19913;-93
2022/01/27 12:40:00;;;;;;;;;;;12.60;64.40;;;;;;5000687;28;19965;-93
2022/01/27 12:42:32;;;;;;;;;;;12.50;64.40;;;;;;4999187;28;19914;-91
2022/01/27 12:45:04;;;;;;;;;;;12.50;64.60;;;;;;4999603;28;19910;-92
2022/01/27 12:47:31;;;;;;;;;;;12.60;64.60;;;;;;5018645;28;20377;-92
2022/01/27 12:50:09;;;;;;;;;;;12.60;64.50;;;;;;5019689;28;19928;-92
2022/01/27 12:52:41;;;;;;;;;;;12.60;64.60;;;;;;5002489;28;20008;-94
2022/01/27 12:55:08;;;;;;;;;;;12.70;64.70;;;;;;5001644;28;19918;-93
2022/01/27 12:57:34;;;;;;;;;;;12.70;64.60;;;;;;5020453;28;20285;-92
2022/01/27 13:00:00;;;;;;;;;;;12.70;64.70;;;;;;5021002;28;19913;-93
2022/01/27 13:02:27;;;;;;;;;;;12.80;64.80;;;;;;5020716;28;19913;-93
2022/01/27 13:04:57;;;;;;;;;;;12.80;64.80;;;;;;5020479;28;20011;-93
2022/01/27 13:07:23;;;;;;;;;;;12.80;64.90;;;;;;5021924;28;19923;-92
2022/01/27 13:09:54;;;;;;;;;;;12.90;64.70;;;;;;5024391;28;19941;-94
2022/01/27 13:12:24;;;;;;;;;;;12.80;64.80;;;;;;5022845;28;19909;-93
2022/01/27 13:15:09;;;;;;;;;;;12.90;64.70;;;;;;5023083;28;19956;-94
2022/01/27 13:17:45;;;;;;;;;;;12.90;64.90;;;;;;5018635;28;20012;-92
2022/01/27 13:20:14;;;;;;;;;;;12.90;65.00;;;;;;5021788;28;19920;-91
2022/01/27 13:22:44;;;;;;;;;;;13.00;64.90;;;;;;5022458;28;19945;-94
2022/01/27 13:25:09;;;;;;;;;;;13.00;64.90;;;;;;5001505;28;19961;-92
2022/01/27 13:27:35;;;;;;;;;;;13.00;64.90;;;;;;5017912;28;19909;-92
2022/01/27 13:30:01;;;;;;;;;;;13.00;64.70;;;;;;5019204;28;19917;-93
2022/01/27 13:32:26;;;;;;;;;;;13.10;64.70;;;;;;5018748;28;19924;-93
2022/01/27 13:34:52;;;;;;;;;;;13.10;64.80;;;;;;5021863;28;19924;-92
2022/01/27 13:37:28;;;;;;;;;;;13.00;64.70;;;;;;5018514;28;20644;-92
2022/01/27 13:42:21;;;;;;;;;;;13.10;64.70;;;;;;5020282;28;20315;-92
2022/01/27 13:45:02;;;;;;;;;;;13.10;64.80;;;;;;5018902;28;19901;-93
2022/01/27 13:47:29;;;;;;;;;;;13.10;64.70;;;;;;5020145;28;19945;-93
2022/01/27 13:50:11;;;;;;;;;;;13.20;64.70;;;;;;5018808;28;19918;-91
2022/01/27 13:52:41;;;;;;;;;;;13.10;64.70;;;;;;5017092;28;19937;-93
2022/01/27 13:55:09;;;;;;;;;;;13.10;64.70;;;;;;5017493;28;19928;-92
2022/01/27 13:57:36;;;;;;;;;;;13.10;64.70;;;;;;5018584;28;19917;-94
2022/01/27 14:00:11;;;;;;;;;;;13.20;64.60;;;;;;5016526;28;19901;-92
2022/01/27 14:02:39;;;;;;;;;;;13.10;64.60;;;;;;5017225;28;19928;-92
2022/01/27 14:05:25;;;;;;;;;;;13.20;64.90;;;;;;5008247;28;20358;-94
2022/01/27 14:07:51;;;;;;;;;;;13.20;64.80;;;;;;5018221;28;20344;-94
2022/01/27 14:10:22;;;;;;;;;;;13.30;64.90;;;;;;5015660;28;19978;-93
2022/01/27 14:12:48;;;;;;;;;;;13.30;64.90;;;;;;5009247;28;19909;-93
2022/01/27 14:15:28;;;;;;;;;;;13.30;64.80;;;;;;5017472;28;19929;-92
2022/01/27 14:17:58;;;;;;;;;;;13.50;64.90;;;;;;5019975;28;19914;-92
2022/01/27 14:20:24;;;;;;;;;;;13.50;65.00;;;;;;5022261;28;19968;-92
2022/01/27 14:23:00;;;;;;;;;;;13.50;64.90;;;;;;5021136;28;19909;-92
2022/01/27 14:25:35;;;;;;;;;;;13.60;64.90;;;;;;5015401;28;19968;-93
2022/01/27 14:28:01;;;;;;;;;;;13.60;64.90;;;;;;5016703;28;19913;-91
2022/01/27 14:30:26;;;;;;;;;;;13.70;64.90;;;;;;5015938;28;19976;-93
2022/01/27 14:32:52;;;;;;;;;;;13.70;64.80;;;;;;5012961;28;19941;-92
2022/01/27 14:35:17;;;;;;;;;;;13.70;64.70;;;;;;5018076;28;19918;-91
2022/01/27 14:37:43;;;;;;;;;;;13.70;64.80;;;;;;5017259;28;19914;-94
2022/01/27 14:40:15;;;;;;;;;;;13.80;64.80;;;;;;5016651;28;19918;-93
2022/01/27 14:42:45;;;;;;;;;;;13.80;64.70;;;;;;5016381;28;20312;-95
2022/01/27 14:45:11;;;;;;;;;;;13.80;64.40;;;;;;5016828;28;20308;-93
2022/01/27 14:47:42;;;;;;;;;;;13.80;64.50;;;;;;5017661;28;19944;-92
2022/01/27 14:50:08;;;;;;;;;;;13.80;64.60;;;;;;5015880;28;19933;-93
2022/01/27 14:52:36;;;;;;;;;;;13.70;64.60;;;;;;5001704;28;19917;-94
2022/01/27 14:55:02;;;;;;;;;;;13.70;64.50;;;;;;5017202;28;19922;-94
2022/01/27 14:57:30;;;;;;;;;;;13.70;64.50;;;;;;5018479;28;19914;-92
2022/01/27 14:59:56;;;;;;;;;;;13.70;64.50;;;;;;5018153;28;19922;-93
2022/01/27 15:02:21;;;;;;;;;;;13.70;64.60;;;;;;5008554;28;19917;-91
2022/01/27 15:04:47;;;;;;;;;;;13.70;64.80;;;;;;5016150;28;20388;-91
2022/01/27 15:07:12;;;;;;;;;;;13.70;64.80;;;;;;5016456;28;20007;-90
2022/01/27 15:09:38;;;;;;;;;;;13.70;64.80;;;;;;5016481;28;19925;-91
2022/01/27 15:12:03;;;;;;;;;;;13.70;64.70;;;;;;5016560;28;19919;-90
2022/01/27 15:19:58;;;;;;;;;;;13.60;64.70;;;;;;5014503;28;19967;-91
2022/01/27 15:22:27;;;;;;;;;;;13.50;64.80;;;;;;5017506;28;19910;-92